createdAt,value
2023-05-12T00:00:14.242Z,498.00
2023-05-12T00:01:14.321Z,497.00
2023-05-12T00:02:14.326Z,497.00
2023-05-12T00:03:14.528Z,497.00
2023-05-12T00:04:14.465Z,498.00
2023-05-12T00:05:14.424Z,499.00
2023-05-12T00:06:14.547Z,498.00
2023-05-12T00:07:14.591Z,499.00
2023-05-12T00:08:14.627Z,498.00
2023-05-12T00:09:14.678Z,497.00
2023-05-12T00:10:14.723Z,498.00
2023-05-12T00:11:14.788Z,498.00
2023-05-12T00:12:14.823Z,499.00
2023-05-12T00:13:14.903Z,498.00
2023-05-12T00:14:14.903Z,496.00
2023-05-12T00:15:14.947Z,496.00
2023-05-12T00:16:15.045Z,498.00
2023-05-12T00:17:15.045Z,499.00
2023-05-12T00:18:15.162Z,498.00
2023-05-12T00:19:15.202Z,495.00
2023-05-12T00:20:15.188Z,497.00
2023-05-12T00:21:15.248Z,497.00
2023-05-12T00:22:15.317Z,496.00
2023-05-12T00:23:15.343Z,496.00
2023-05-12T00:24:15.451Z,496.00
2023-05-12T00:25:15.432Z,496.00
2023-05-12T00:26:15.516Z,496.00
2023-05-12T00:27:15.556Z,496.00
2023-05-12T00:28:15.594Z,496.00
2023-05-12T00:29:15.669Z,496.00
2023-05-12T00:30:15.717Z,494.00
2023-05-12T00:31:15.842Z,497.00
2023-05-12T00:32:15.786Z,496.00
2023-05-12T00:33:15.829Z,498.00
2023-05-12T00:34:15.913Z,499.00
2023-05-12T00:35:15.990Z,500.00
2023-05-12T00:36:16.001Z,499.00
2023-05-12T00:37:16.062Z,498.00
2023-05-12T00:38:16.136Z,498.00
2023-05-12T00:39:16.159Z,497.00
2023-05-12T00:40:16.201Z,494.00
2023-05-12T00:41:16.288Z,493.00
2023-05-12T00:42:16.305Z,491.00
2023-05-12T00:43:16.385Z,492.00
2023-05-12T00:44:16.452Z,490.00
2023-05-12T00:45:16.517Z,489.00
2023-05-12T00:46:16.538Z,488.00
2023-05-12T00:47:16.662Z,489.00
2023-05-12T00:48:16.627Z,490.00
2023-05-12T00:49:16.709Z,489.00
2023-05-12T00:50:16.910Z,489.00
2023-05-12T00:51:16.815Z,489.00
2023-05-12T00:52:16.860Z,490.00
2023-05-12T00:53:16.925Z,491.00
2023-05-12T00:54:16.969Z,488.00
2023-05-12T00:55:16.989Z,487.00
2023-05-12T00:56:17.073Z,487.00
2023-05-12T00:57:17.114Z,488.00
2023-05-12T00:58:17.166Z,489.00
2023-05-12T00:59:17.297Z,487.00
2023-05-12T01:00:17.303Z,487.00
2023-05-12T01:01:17.400Z,488.00
2023-05-12T01:02:17.447Z,487.00
2023-05-12T01:03:17.603Z,487.00
2023-05-12T01:04:17.528Z,490.00
2023-05-12T01:05:17.653Z,492.00
2023-05-12T01:06:17.652Z,493.00
2023-05-12T01:07:17.705Z,494.00
2023-05-12T01:08:17.752Z,492.00
2023-05-12T01:09:17.840Z,494.00
2023-05-12T01:10:18.114Z,497.00
2023-05-12T01:11:17.878Z,494.00
2023-05-12T01:12:17.984Z,493.00
2023-05-12T01:13:17.989Z,490.00
2023-05-12T01:14:18.066Z,490.00
2023-05-12T01:15:18.124Z,487.00
2023-05-12T01:16:18.178Z,488.00
2023-05-12T01:17:18.339Z,489.00
2023-05-12T01:18:18.331Z,490.00
2023-05-12T01:19:18.357Z,491.00
2023-05-12T01:20:18.639Z,492.00
2023-05-12T01:21:18.428Z,493.00
2023-05-12T01:22:18.536Z,492.00
2023-05-12T01:23:18.548Z,493.00
2023-05-12T01:24:18.618Z,492.00
2023-05-12T01:25:18.646Z,493.00
2023-05-12T01:26:18.683Z,496.00
2023-05-12T01:27:18.700Z,497.00
2023-05-12T01:28:18.823Z,499.00
2023-05-12T01:29:18.868Z,501.00
2023-05-12T01:30:19.133Z,499.00
2023-05-12T01:31:20.977Z,498.00
2023-05-12T01:32:19.080Z,494.00
2023-05-12T01:33:19.068Z,495.00
2023-05-12T01:34:19.120Z,495.00
2023-05-12T01:35:19.156Z,493.00
2023-05-12T01:36:19.190Z,495.00
2023-05-12T01:37:19.244Z,496.00
2023-05-12T01:38:19.588Z,492.00
2023-05-12T01:39:19.341Z,493.00
2023-05-12T01:40:19.525Z,492.00
2023-05-12T01:41:19.447Z,491.00
2023-05-12T01:42:19.500Z,493.00
2023-05-12T01:43:20.850Z,494.00
2023-05-12T01:44:19.680Z,496.00
2023-05-12T01:45:19.746Z,496.00
2023-05-12T01:46:19.835Z,495.00
2023-05-12T01:47:19.889Z,493.00
2023-05-12T01:48:19.924Z,491.00
2023-05-12T01:49:19.976Z,489.00
2023-05-12T01:50:20.253Z,488.00
2023-05-12T01:51:20.013Z,488.00
2023-05-12T01:52:20.095Z,488.00
2023-05-12T01:53:20.130Z,487.00
2023-05-12T01:54:20.163Z,486.00
2023-05-12T01:55:20.245Z,485.00
2023-05-12T01:56:20.313Z,485.00
2023-05-12T01:57:20.335Z,485.00
2023-05-12T01:58:20.357Z,485.00
2023-05-12T01:59:20.504Z,487.00
2023-05-12T02:00:20.664Z,489.00
2023-05-12T02:01:20.587Z,486.00
2023-05-12T02:02:20.592Z,486.00
2023-05-12T02:03:20.695Z,484.00
2023-05-12T02:04:20.707Z,483.00
2023-05-12T02:05:20.717Z,486.00
2023-05-12T02:06:20.767Z,485.00
2023-05-12T02:07:20.813Z,485.00
2023-05-12T02:08:20.878Z,485.00
2023-05-12T02:09:20.941Z,484.00
2023-05-12T02:10:21.181Z,483.00
2023-05-12T02:11:20.981Z,482.00
2023-05-12T02:12:21.044Z,484.00
2023-05-12T02:13:21.105Z,484.00
2023-05-12T02:14:21.689Z,483.00
2023-05-12T02:15:21.192Z,485.00
2023-05-12T02:16:21.274Z,485.00
2023-05-12T02:17:21.269Z,486.00
2023-05-12T02:18:21.390Z,484.00
2023-05-12T02:19:21.399Z,482.00
2023-05-12T02:20:21.600Z,481.00
2023-05-12T02:21:21.479Z,482.00
2023-05-12T02:22:21.517Z,481.00
2023-05-12T02:23:21.563Z,481.00
2023-05-12T02:24:21.636Z,481.00
2023-05-12T02:25:21.692Z,480.00
2023-05-12T02:26:21.719Z,480.00
2023-05-12T02:27:21.746Z,481.00
2023-05-12T02:28:21.768Z,480.00
2023-05-12T02:29:21.844Z,481.00
2023-05-12T02:30:22.066Z,482.00
2023-05-12T02:31:21.925Z,484.00
2023-05-12T02:32:21.996Z,486.00
2023-05-12T02:33:22.008Z,485.00
2023-05-12T02:34:22.080Z,485.00
2023-05-12T02:35:22.134Z,485.00
2023-05-12T02:36:22.186Z,484.00
2023-05-12T02:37:22.197Z,483.00
2023-05-12T02:38:22.265Z,485.00
2023-05-12T02:39:22.309Z,484.00
2023-05-12T02:40:22.488Z,486.00
2023-05-12T02:41:22.386Z,485.00
2023-05-12T02:42:22.495Z,484.00
2023-05-12T02:43:22.487Z,483.00
2023-05-12T02:44:22.574Z,483.00
2023-05-12T02:45:22.565Z,483.00
2023-05-12T02:46:22.717Z,483.00
2023-05-12T02:47:22.741Z,482.00
2023-05-12T02:48:22.717Z,484.00
2023-05-12T02:49:22.804Z,485.00
2023-05-12T02:50:22.918Z,486.00
2023-05-12T02:51:22.878Z,486.00
2023-05-12T02:52:22.920Z,485.00
2023-05-12T02:53:22.931Z,488.00
2023-05-12T02:54:22.980Z,487.00
2023-05-12T02:55:23.007Z,487.00
2023-05-12T02:56:23.075Z,486.00
2023-05-12T02:57:23.098Z,486.00
2023-05-12T02:58:23.151Z,487.00
2023-05-12T02:59:23.247Z,486.00
2023-05-12T03:00:23.242Z,484.00
2023-05-12T03:01:23.288Z,485.00
2023-05-12T03:02:23.373Z,484.00
2023-05-12T03:03:23.377Z,484.00
2023-05-12T03:04:23.407Z,483.00
2023-05-12T03:05:23.466Z,483.00
2023-05-12T03:06:23.484Z,482.00
2023-05-12T03:07:23.543Z,486.00
2023-05-12T03:08:23.585Z,487.00
2023-05-12T03:09:23.649Z,486.00
2023-05-12T03:10:23.719Z,485.00
2023-05-12T03:11:23.732Z,482.00
2023-05-12T03:12:23.790Z,481.00
2023-05-12T03:13:23.831Z,480.00
2023-05-12T03:14:23.910Z,480.00
2023-05-12T03:15:23.862Z,481.00
2023-05-12T03:16:23.991Z,482.00
2023-05-12T03:17:23.982Z,483.00
2023-05-12T03:18:24.041Z,483.00
2023-05-12T03:19:24.098Z,485.00
2023-05-12T03:20:24.129Z,484.00
2023-05-12T03:21:24.152Z,486.00
2023-05-12T03:22:24.245Z,485.00
2023-05-12T03:23:24.256Z,485.00
2023-05-12T03:24:24.315Z,487.00
2023-05-12T03:25:24.361Z,487.00
2023-05-12T03:26:24.405Z,489.00
2023-05-12T03:27:24.458Z,490.00
2023-05-12T03:28:24.460Z,490.00
2023-05-12T03:29:24.516Z,491.00
2023-05-12T03:30:24.587Z,490.00
2023-05-12T03:31:24.668Z,489.00
2023-05-12T03:32:24.694Z,488.00
2023-05-12T03:33:24.729Z,488.00
2023-05-12T03:34:24.766Z,488.00
2023-05-12T03:35:24.800Z,487.00
2023-05-12T03:36:24.873Z,489.00
2023-05-12T03:37:24.909Z,487.00
2023-05-12T03:38:24.916Z,488.00
2023-05-12T03:39:25.053Z,489.00
2023-05-12T03:40:25.335Z,489.00
2023-05-12T03:41:25.049Z,487.00
2023-05-12T03:42:25.160Z,486.00
2023-05-12T03:43:25.167Z,486.00
2023-05-12T03:44:25.257Z,485.00
2023-05-12T03:45:25.237Z,486.00
2023-05-12T03:46:25.439Z,488.00
2023-05-12T03:47:26.523Z,484.00
2023-05-12T03:48:25.403Z,485.00
2023-05-12T03:49:25.370Z,485.00
2023-05-12T03:50:25.343Z,488.00
2023-05-12T03:51:25.311Z,488.00
2023-05-12T03:52:25.323Z,489.00
2023-05-12T03:53:25.307Z,488.00
2023-05-12T03:54:25.313Z,488.00
2023-05-12T03:55:25.286Z,486.00
2023-05-12T03:56:25.274Z,487.00
2023-05-12T03:57:25.262Z,490.00
2023-05-12T03:58:25.298Z,490.00
2023-05-12T03:59:25.307Z,487.00
2023-05-12T04:00:25.260Z,488.00
2023-05-12T04:01:25.268Z,488.00
2023-05-12T04:02:25.386Z,488.00
2023-05-12T04:03:25.316Z,489.00
2023-05-12T04:04:25.237Z,488.00
2023-05-12T04:05:25.241Z,485.00
2023-05-12T04:06:25.260Z,485.00
2023-05-12T04:07:25.226Z,484.00
2023-05-12T04:08:25.220Z,483.00
2023-05-12T04:09:25.232Z,482.00
2023-05-12T04:10:25.180Z,482.00
2023-05-12T04:11:25.187Z,482.00
2023-05-12T04:12:25.185Z,481.00
2023-05-12T04:13:25.183Z,481.00
2023-05-12T04:14:35.273Z,483.00
2023-05-12T04:15:26.171Z,485.00
2023-05-12T04:16:25.144Z,485.00
2023-05-12T04:17:25.159Z,484.00
2023-05-12T04:18:25.184Z,481.00
2023-05-12T04:19:25.118Z,483.00
2023-05-12T04:20:25.131Z,483.00
2023-05-12T04:21:25.100Z,484.00
2023-05-12T04:22:25.945Z,485.00
2023-05-12T04:23:25.090Z,484.00
2023-05-12T04:24:25.103Z,485.00
2023-05-12T04:25:25.070Z,484.00
2023-05-12T04:26:25.098Z,481.00
2023-05-12T04:27:25.142Z,481.00
2023-05-12T04:28:25.238Z,478.00
2023-05-12T04:29:25.274Z,481.00
2023-05-12T04:30:25.310Z,480.00
2023-05-12T04:31:25.368Z,479.00
2023-05-12T04:32:25.472Z,479.00
2023-05-12T04:33:25.472Z,480.00
2023-05-12T04:34:25.549Z,479.00
2023-05-12T04:35:25.579Z,480.00
2023-05-12T04:36:25.624Z,480.00
2023-05-12T04:37:25.680Z,479.00
2023-05-12T04:38:25.737Z,480.00
2023-05-12T04:39:25.786Z,480.00
2023-05-12T04:40:25.844Z,483.00
2023-05-12T04:41:25.850Z,483.00
2023-05-12T04:42:25.918Z,483.00
2023-05-12T04:44:26.742Z,483.00
2023-05-12T04:45:25.929Z,477.00
2023-05-12T04:46:26.029Z,475.00
2023-05-12T04:47:26.005Z,479.00
2023-05-12T04:48:25.956Z,481.00
2023-05-12T04:49:25.960Z,484.00
2023-05-12T04:50:25.880Z,484.00
2023-05-12T04:51:25.929Z,484.00
2023-05-12T04:52:25.894Z,484.00
2023-05-12T04:53:25.898Z,484.00
2023-05-12T04:54:25.896Z,483.00
2023-05-12T04:55:25.845Z,482.00
2023-05-12T04:56:25.861Z,484.00
2023-05-12T04:57:25.834Z,485.00
2023-05-12T04:58:25.826Z,485.00
2023-05-12T04:59:26.136Z,489.00
2023-05-12T05:01:52.498Z,485.00
2023-05-12T05:02:44.698Z,483.00
2023-05-12T05:03:44.771Z,479.00
2023-05-12T05:04:44.646Z,477.00
2023-05-12T05:05:44.633Z,479.00
2023-05-12T05:06:44.593Z,478.00
2023-05-12T05:07:44.611Z,477.00
2023-05-12T05:08:44.610Z,483.00
2023-05-12T05:09:44.919Z,480.00
2023-05-12T05:10:44.570Z,481.00
2023-05-12T05:11:44.561Z,476.00
2023-05-12T05:12:44.549Z,480.00
2023-05-12T05:13:44.585Z,482.00
2023-05-12T05:14:44.598Z,480.00
2023-05-12T05:15:44.584Z,475.00
2023-05-12T05:16:44.559Z,473.00
2023-05-12T05:17:44.586Z,468.00
2023-05-12T05:18:44.628Z,468.00
2023-05-12T05:19:57.092Z,466.00
2023-05-12T05:20:50.755Z,470.00
2023-05-12T05:21:45.657Z,467.00
2023-05-12T05:22:44.598Z,462.00
2023-05-12T05:23:44.607Z,467.00
2023-05-12T05:24:44.619Z,464.00
2023-05-12T05:25:44.596Z,465.00
2023-05-12T05:26:44.597Z,465.00
2023-05-12T05:27:44.582Z,464.00
2023-05-12T05:28:44.614Z,465.00
2023-05-12T05:29:44.555Z,455.00
2023-05-12T05:30:44.554Z,446.00
2023-05-12T05:31:44.617Z,452.00
2023-05-12T05:32:44.619Z,500.00
2023-05-12T05:33:44.586Z,495.00
2023-05-12T05:34:44.666Z,478.00
2023-05-12T05:35:44.535Z,473.00
2023-05-12T05:36:44.503Z,472.00
2023-05-12T05:37:44.566Z,481.00
2023-05-12T05:38:44.516Z,479.00
2023-05-12T05:39:44.486Z,472.00
2023-05-12T05:40:52.975Z,475.00
2023-05-12T05:41:45.504Z,468.00
2023-05-12T05:42:44.504Z,505.00
2023-05-12T05:43:44.437Z,501.00
2023-05-12T05:44:44.485Z,498.00
2023-05-12T05:47:11.185Z,476.00
2023-05-12T05:48:03.685Z,471.00
2023-05-12T05:49:03.474Z,470.00
2023-05-12T05:50:03.635Z,469.00
2023-05-12T05:51:03.437Z,463.00
2023-05-12T05:52:03.405Z,462.00
2023-05-12T05:53:03.388Z,461.00
2023-05-12T05:54:03.398Z,456.00
2023-05-12T05:55:03.401Z,472.00
2023-05-12T05:56:03.383Z,460.00
2023-05-12T05:57:03.380Z,457.00
2023-05-12T05:58:03.388Z,453.00
2023-05-12T05:59:03.427Z,451.00
2023-05-12T06:00:03.410Z,457.00
2023-05-12T06:01:03.645Z,456.00
2023-05-12T06:02:03.417Z,455.00
2023-05-12T06:03:03.463Z,459.00
2023-05-12T06:04:03.520Z,461.00
2023-05-12T06:05:03.374Z,464.00
2023-05-12T06:06:03.674Z,463.00
2023-05-12T06:07:03.506Z,463.00
2023-05-12T06:08:03.821Z,463.00
2023-05-12T06:09:03.440Z,464.00
2023-05-12T06:10:03.461Z,465.00
2023-05-12T06:11:03.458Z,465.00
2023-05-12T06:12:03.433Z,469.00
2023-05-12T06:13:03.416Z,471.00
2023-05-12T06:14:03.444Z,467.00
2023-05-12T06:15:03.442Z,468.00
2023-05-12T06:16:03.660Z,466.00
2023-05-12T06:17:03.607Z,464.00
2023-05-12T06:18:03.686Z,468.00
2023-05-12T06:19:03.705Z,468.00
2023-05-12T06:20:04.140Z,468.00
2023-05-12T06:21:03.814Z,469.00
2023-05-12T06:22:03.845Z,472.00
2023-05-12T06:23:03.898Z,468.00
2023-05-12T06:24:03.946Z,467.00
2023-05-12T06:25:03.995Z,465.00
2023-05-12T06:26:04.182Z,461.00
2023-05-12T06:27:04.131Z,466.00
2023-05-12T06:28:04.193Z,465.00
2023-05-12T06:29:04.200Z,470.00
2023-05-12T06:30:04.335Z,474.00
2023-05-12T06:31:04.373Z,474.00
2023-05-12T06:32:04.487Z,470.00
2023-05-12T06:33:04.481Z,470.00
2023-05-12T06:34:04.499Z,468.00
2023-05-12T06:35:04.609Z,466.00
2023-05-12T06:36:04.664Z,475.00
2023-05-12T06:37:04.626Z,474.00
2023-05-12T06:38:04.624Z,470.00
2023-05-12T06:39:04.781Z,478.00
2023-05-12T06:40:04.704Z,485.00
2023-05-12T06:41:05.156Z,497.00
2023-05-12T06:42:04.816Z,498.00
2023-05-12T06:43:04.877Z,494.00
2023-05-12T06:44:05.281Z,503.00
2023-05-12T06:45:04.997Z,507.00
2023-05-12T06:46:05.224Z,504.00
2023-05-12T06:47:05.103Z,497.00
2023-05-12T06:48:05.248Z,488.00
2023-05-12T06:49:05.271Z,488.00
2023-05-12T06:50:05.853Z,486.00
2023-05-12T06:51:06.068Z,486.00
2023-05-12T06:52:05.332Z,481.00
2023-05-12T06:53:05.345Z,489.00
2023-05-12T06:54:05.339Z,487.00
2023-05-12T06:55:05.365Z,488.00
2023-05-12T06:56:05.425Z,485.00
2023-05-12T06:57:06.058Z,486.00
2023-05-12T06:58:05.430Z,488.00
2023-05-12T06:59:05.439Z,485.00
2023-05-12T07:00:05.385Z,493.00
2023-05-12T07:01:05.426Z,484.00
2023-05-12T07:02:05.397Z,489.00
2023-05-12T07:03:05.537Z,490.00
2023-05-12T07:04:05.851Z,491.00
2023-05-12T07:05:05.485Z,492.00
2023-05-12T07:06:05.527Z,487.00
2023-05-12T07:07:05.552Z,494.00
2023-05-12T07:08:05.490Z,498.00
2023-05-12T07:09:05.611Z,493.00
2023-05-12T07:10:05.544Z,487.00
2023-05-12T07:11:05.780Z,483.00
2023-05-12T07:12:05.633Z,486.00
2023-05-12T07:13:05.635Z,492.00
2023-05-12T07:14:05.645Z,488.00
2023-05-12T07:15:05.703Z,490.00
2023-05-12T07:16:05.807Z,516.00
2023-05-12T07:17:05.772Z,507.00
2023-05-12T07:18:06.675Z,499.00
2023-05-12T07:19:06.135Z,495.00
2023-05-12T07:20:05.811Z,490.00
2023-05-12T07:21:05.836Z,483.00
2023-05-12T07:22:05.864Z,479.00
2023-05-12T07:23:05.961Z,483.00
2023-05-12T07:24:05.981Z,484.00
2023-05-12T07:25:06.077Z,487.00
2023-05-12T07:26:06.176Z,497.00
2023-05-12T07:27:06.173Z,503.00
2023-05-12T07:28:06.084Z,761.00
2023-05-12T07:29:06.110Z,741.00
2023-05-12T07:30:06.167Z,666.00
2023-05-12T07:31:06.749Z,576.00
2023-05-12T07:32:06.315Z,530.00
2023-05-12T07:33:06.379Z,516.00
2023-05-12T07:34:06.431Z,583.00
2023-05-12T07:35:06.409Z,526.00
2023-05-12T07:36:06.718Z,506.00
2023-05-12T07:37:06.530Z,514.00
2023-05-12T07:38:06.559Z,512.00
2023-05-12T07:39:06.633Z,504.00
2023-05-12T07:40:06.619Z,490.00
2023-05-12T07:41:07.209Z,491.00
2023-05-12T07:42:06.797Z,518.00
2023-05-12T07:43:06.858Z,534.00
2023-05-12T07:44:06.781Z,524.00
2023-05-12T07:45:06.836Z,533.00
2023-05-12T07:46:06.868Z,520.00
2023-05-12T07:47:07.043Z,509.00
2023-05-12T07:48:07.137Z,507.00
2023-05-12T07:49:07.025Z,500.00
2023-05-12T07:50:07.368Z,486.00
2023-05-12T07:51:07.181Z,484.00
2023-05-12T07:52:07.178Z,484.00
2023-05-12T07:53:07.271Z,492.00
2023-05-12T07:54:07.335Z,489.00
2023-05-12T07:55:07.770Z,493.00
2023-05-12T07:56:07.712Z,486.00
2023-05-12T07:57:07.486Z,482.00
2023-05-12T07:58:07.544Z,481.00
2023-05-12T07:59:07.581Z,478.00
2023-05-12T08:00:07.599Z,475.00
2023-05-12T08:01:08.055Z,473.00
2023-05-12T08:02:07.749Z,475.00
2023-05-12T08:03:07.850Z,470.00
2023-05-12T08:04:08.094Z,471.00
2023-05-12T08:05:07.759Z,469.00
2023-05-12T08:06:08.202Z,464.00
2023-05-12T08:07:08.237Z,468.00
2023-05-12T08:08:07.867Z,468.00
2023-05-12T08:09:07.953Z,466.00
2023-05-12T08:10:08.086Z,462.00
2023-05-12T08:11:08.451Z,459.00
2023-05-12T08:12:08.068Z,463.00
2023-05-12T08:13:08.559Z,462.00
2023-05-12T08:14:08.292Z,464.00
2023-05-12T08:15:08.206Z,465.00
2023-05-12T08:16:08.725Z,465.00
2023-05-12T08:17:08.325Z,464.00
2023-05-12T08:18:08.390Z,467.00
2023-05-12T08:19:08.691Z,467.00
2023-05-12T08:20:08.512Z,468.00
2023-05-12T08:21:08.464Z,466.00
2023-05-12T08:22:08.427Z,470.00
2023-05-12T08:23:08.461Z,473.00
2023-05-12T08:24:08.622Z,471.00
2023-05-12T08:25:10.368Z,469.00
2023-05-12T08:26:09.034Z,467.00
2023-05-12T08:27:08.614Z,468.00
2023-05-12T08:28:08.544Z,468.00
2023-05-12T08:29:08.725Z,468.00
2023-05-12T08:30:08.490Z,470.00
2023-05-12T08:31:08.735Z,465.00
2023-05-12T08:32:08.768Z,466.00
2023-05-12T08:33:08.588Z,509.00
2023-05-12T08:34:10.444Z,542.00
2023-05-12T08:35:08.634Z,576.00
2023-05-12T08:36:08.736Z,522.00
2023-05-12T08:37:08.761Z,492.00
2023-05-12T08:38:08.699Z,496.00
2023-05-12T08:39:08.680Z,909.00
2023-05-12T08:40:08.764Z,623.00
2023-05-12T08:41:09.244Z,567.00
2023-05-12T08:42:08.780Z,684.00
2023-05-12T08:43:08.954Z,692.00
2023-05-12T08:44:08.803Z,553.00
2023-05-12T08:45:08.758Z,622.00
2023-05-12T08:46:08.765Z,502.00
2023-05-12T08:47:09.225Z,519.00
2023-05-12T08:48:08.936Z,503.00
2023-05-12T08:49:08.943Z,590.00
2023-05-12T08:50:08.927Z,568.00
2023-05-12T08:51:09.002Z,647.00
2023-05-12T08:52:09.223Z,495.00
2023-05-12T08:53:09.080Z,495.00
2023-05-12T08:54:09.084Z,487.00
2023-05-12T08:55:09.152Z,475.00
2023-05-12T08:57:10.395Z,465.00
2023-05-12T08:58:10.183Z,460.00
2023-05-12T08:59:09.177Z,458.00
2023-05-12T09:00:09.901Z,457.00
2023-05-12T09:01:09.174Z,456.00
2023-05-12T09:02:09.268Z,457.00
2023-05-12T09:03:09.109Z,458.00
2023-05-12T09:04:09.739Z,465.00
2023-05-12T09:05:09.110Z,553.00
2023-05-12T09:06:09.077Z,500.00
2023-05-12T09:07:09.219Z,491.00
2023-05-12T09:08:09.074Z,503.00
2023-05-12T09:09:09.154Z,480.00
2023-05-12T09:10:09.186Z,470.00
2023-05-12T09:11:09.400Z,466.00
2023-05-12T09:12:09.204Z,468.00
2023-05-12T09:13:09.131Z,464.00
2023-05-12T09:14:08.999Z,458.00
2023-05-12T09:15:09.032Z,455.00
2023-05-12T09:16:09.133Z,452.00
2023-05-12T09:17:09.078Z,452.00
2023-05-12T09:18:09.156Z,453.00
2023-05-12T09:19:09.007Z,456.00
2023-05-12T09:20:17.703Z,455.00
2023-05-12T09:21:10.050Z,460.00
2023-05-12T09:22:08.974Z,458.00
2023-05-12T09:23:08.973Z,452.00
2023-05-12T09:24:09.622Z,453.00
2023-05-12T09:25:09.002Z,454.00
2023-05-12T09:26:08.989Z,446.00
2023-05-12T09:27:09.315Z,449.00
2023-05-12T09:28:08.989Z,446.00
2023-05-12T09:29:09.327Z,453.00
2023-05-12T09:30:09.038Z,455.00
2023-05-12T09:31:09.068Z,450.00
2023-05-12T09:32:09.187Z,449.00
2023-05-12T09:33:09.113Z,445.00
2023-05-12T09:34:09.367Z,447.00
2023-05-12T09:35:09.013Z,442.00
2023-05-12T09:36:09.062Z,439.00
2023-05-12T09:37:09.071Z,443.00
2023-05-12T09:38:09.127Z,444.00
2023-05-12T09:39:09.213Z,445.00
2023-05-12T09:40:09.176Z,445.00
2023-05-12T09:41:09.257Z,454.00
2023-05-12T09:42:09.229Z,461.00
2023-05-12T09:43:09.181Z,470.00
2023-05-12T09:44:09.221Z,493.00
2023-05-12T09:45:09.282Z,491.00
2023-05-12T09:46:09.297Z,576.00
2023-05-12T09:47:09.787Z,511.00
2023-05-12T09:48:09.274Z,501.00
2023-05-12T09:49:09.301Z,493.00
2023-05-12T09:50:10.289Z,496.00
2023-05-12T09:51:09.282Z,494.00
2023-05-12T09:52:09.813Z,489.00
2023-05-12T09:53:09.259Z,581.00
2023-05-12T09:54:09.223Z,560.00
2023-05-12T09:55:09.344Z,481.00
2023-05-12T09:56:09.295Z,475.00
2023-05-12T09:57:09.721Z,467.00
2023-05-12T09:58:09.217Z,463.00
2023-05-12T09:59:09.244Z,451.00
2023-05-12T10:00:16.927Z,458.00
2023-05-12T10:02:09.266Z,458.00
2023-05-12T10:03:09.315Z,451.00
2023-05-12T10:04:09.296Z,451.00
2023-05-12T10:05:09.382Z,447.00
2023-05-12T10:06:09.230Z,446.00
2023-05-12T10:07:09.235Z,451.00
2023-05-12T10:08:09.172Z,445.00
2023-05-12T10:09:09.311Z,453.00
2023-05-12T10:10:09.175Z,449.00
2023-05-12T10:11:09.154Z,454.00
2023-05-12T10:12:09.187Z,443.00
2023-05-12T10:13:09.491Z,564.00
2023-05-12T10:14:09.092Z,627.00
2023-05-12T10:15:09.107Z,614.00
2023-05-12T10:16:09.132Z,487.00
2023-05-12T10:17:09.466Z,476.00
2023-05-12T10:18:10.295Z,476.00
2023-05-12T10:19:09.241Z,472.00
2023-05-12T10:20:09.088Z,475.00
2023-05-12T10:21:09.061Z,476.00
2023-05-12T10:22:09.031Z,466.00
2023-05-12T10:23:09.244Z,462.00
2023-05-12T10:24:09.055Z,461.00
2023-05-12T10:25:09.048Z,457.00
2023-05-12T10:26:09.026Z,455.00
2023-05-12T10:27:09.009Z,453.00
2023-05-12T10:28:09.249Z,454.00
2023-05-12T10:29:08.983Z,451.00
2023-05-12T10:30:09.016Z,460.00
2023-05-12T10:31:09.027Z,455.00
2023-05-12T10:32:09.097Z,451.00
2023-05-12T10:33:09.360Z,453.00
2023-05-12T10:34:09.249Z,456.00
2023-05-12T10:35:09.382Z,461.00
2023-05-12T10:36:09.236Z,497.00
2023-05-12T10:37:09.278Z,472.00
2023-05-12T10:38:10.626Z,470.00
2023-05-12T10:39:09.307Z,469.00
2023-05-12T10:40:09.327Z,469.00
2023-05-12T10:41:09.385Z,471.00
2023-05-12T10:42:09.443Z,457.00
2023-05-12T10:43:09.419Z,450.00
2023-05-12T10:44:09.527Z,445.00
2023-05-12T10:45:09.504Z,447.00
2023-05-12T10:46:09.728Z,450.00
2023-05-12T10:47:11.037Z,451.00
2023-05-12T10:48:09.714Z,455.00
2023-05-12T10:49:09.635Z,457.00
2023-05-12T10:50:09.664Z,457.00
2023-05-12T10:51:09.766Z,453.00
2023-05-12T10:52:09.760Z,456.00
2023-05-12T10:53:10.559Z,448.00
2023-05-12T10:54:09.882Z,449.00
2023-05-12T10:55:10.018Z,440.00
2023-05-12T10:56:10.249Z,443.00
2023-05-12T10:57:10.185Z,446.00
2023-05-12T10:58:10.728Z,442.00
2023-05-12T10:59:10.348Z,457.00
2023-05-12T11:00:10.731Z,454.00
2023-05-12T11:01:10.326Z,452.00
2023-05-12T11:02:10.525Z,447.00
2023-05-12T11:03:11.610Z,448.00
2023-05-12T11:04:10.482Z,445.00
2023-05-12T11:05:10.726Z,449.00
2023-05-12T11:06:10.725Z,445.00
2023-05-12T11:07:11.740Z,441.00
2023-05-12T11:08:11.781Z,438.00
2023-05-12T11:09:11.194Z,440.00
2023-05-12T11:10:10.831Z,442.00
2023-05-12T11:11:11.075Z,443.00
2023-05-12T11:12:10.658Z,441.00
2023-05-12T11:13:10.778Z,440.00
2023-05-12T11:14:10.795Z,444.00
2023-05-12T11:15:11.232Z,443.00
2023-05-12T11:16:10.911Z,445.00
2023-05-12T11:17:10.937Z,446.00
2023-05-12T11:18:10.955Z,444.00
2023-05-12T11:19:11.036Z,448.00
2023-05-12T11:20:11.065Z,451.00
2023-05-12T11:21:11.065Z,446.00
2023-05-12T11:22:11.097Z,444.00
2023-05-12T11:23:11.771Z,445.00
2023-05-12T11:24:13.752Z,443.00
2023-05-12T11:25:11.418Z,439.00
2023-05-12T11:26:11.409Z,435.00
2023-05-12T11:27:11.378Z,437.00
2023-05-12T11:28:11.793Z,437.00
2023-05-12T11:29:11.445Z,434.00
2023-05-12T11:30:11.501Z,435.00
2023-05-12T11:31:11.516Z,441.00
2023-05-12T11:32:11.603Z,453.00
2023-05-12T11:33:11.914Z,450.00
2023-05-12T11:34:13.420Z,449.00
2023-05-12T11:35:11.644Z,453.00
2023-05-12T11:36:11.999Z,454.00
2023-05-12T11:37:11.757Z,461.00
2023-05-12T11:38:11.767Z,464.00
2023-05-12T11:39:11.780Z,463.00
2023-05-12T11:40:11.676Z,461.00
2023-05-12T11:41:11.655Z,454.00
2023-05-12T11:42:13.440Z,446.00
2023-05-12T11:43:11.941Z,440.00
2023-05-12T11:44:12.515Z,441.00
2023-05-12T11:45:11.942Z,438.00
2023-05-12T11:46:12.054Z,440.00
2023-05-12T11:47:12.134Z,438.00
2023-05-12T11:48:12.782Z,440.00
2023-05-12T11:49:12.497Z,440.00
2023-05-12T11:50:12.252Z,437.00
2023-05-12T11:51:13.424Z,438.00
2023-05-12T11:52:12.306Z,442.00
2023-05-12T11:53:12.387Z,454.00
2023-05-12T11:54:12.418Z,464.00
2023-05-12T11:55:12.446Z,472.00
2023-05-12T11:56:12.382Z,478.00
2023-05-12T11:57:12.436Z,479.00
2023-05-12T11:58:12.513Z,481.00
2023-05-12T11:59:12.549Z,485.00
2023-05-12T12:00:12.586Z,488.00
2023-05-12T12:01:12.696Z,488.00
2023-05-12T12:02:12.757Z,484.00
2023-05-12T12:03:13.186Z,480.00
2023-05-12T12:04:13.042Z,480.00
2023-05-12T12:05:12.717Z,477.00
2023-05-12T12:06:12.735Z,477.00
2023-05-12T12:07:12.760Z,482.00
2023-05-12T12:08:12.787Z,486.00
2023-05-12T12:09:12.820Z,489.00
2023-05-12T12:10:12.854Z,492.00
2023-05-12T12:11:12.988Z,491.00
2023-05-12T12:12:12.922Z,489.00
2023-05-12T12:13:12.932Z,489.00
2023-05-12T12:14:12.927Z,490.00
2023-05-12T12:15:12.920Z,489.00
2023-05-12T12:16:14.775Z,488.00
2023-05-12T12:17:12.941Z,491.00
2023-05-12T12:18:13.158Z,493.00
2023-05-12T12:19:13.449Z,494.00
2023-05-12T12:20:13.785Z,498.00
2023-05-12T12:21:13.030Z,502.00
2023-05-12T12:22:13.320Z,504.00
2023-05-12T12:23:12.982Z,504.00
2023-05-12T12:24:12.980Z,503.00
2023-05-12T12:25:13.005Z,505.00
2023-05-12T12:26:12.994Z,505.00
2023-05-12T12:27:13.091Z,506.00
2023-05-12T12:28:13.023Z,508.00
2023-05-12T12:29:12.990Z,511.00
2023-05-12T12:30:13.022Z,513.00
2023-05-12T12:31:13.049Z,520.00
2023-05-12T12:32:12.981Z,522.00
2023-05-12T12:33:13.053Z,568.00
2023-05-12T12:34:13.004Z,586.00